Cherry Valley, Massachusetts
Current Conditions -  °F | °C
As of 12:54 AM on Thursday 23 Oct 2014 (Local Time) from KORH Reporting Station
Moderate Rain Moderate Rain  
Wind Chill: 38°   Ceiling: 500
Heat Index: 45°   Visibility: 3mi
Dew Point: 44°   Wind: 17mph
Humidity: 97%   Direction: 20°NNE
Pressure: 29.79"   Gusts: 29mph
Location:  42.24°N, 71.87°W
Report Text: KORH 230454Z AUTO 02015G25KT 3SM RA BR OVC005 07/07 A2979 RMK AO2 PK WND 03031/0440 SFC VIS 5 LTG DSNT E AND SE CIG 003V008 SLP094 P0009 T00720067 400940072
Loading
Personal Weather Stations






























Interactive Weather Map
Tropical Storm Tracking
New forecast layout! Learn more

10-Day Weather Forecast

Advertisements
Track Severe Weather on mobile